createdAt,value
2023-03-12T00:02:27.070Z,9.90
2023-03-12T00:06:37.086Z,11.60
2023-03-12T00:10:44.845Z,12.00
2023-03-12T00:14:52.553Z,12.60
2023-03-12T00:19:00.145Z,11.10
2023-03-12T00:23:07.795Z,11.40
2023-03-12T00:27:15.416Z,10.60
2023-03-12T00:31:27.445Z,11.40
2023-03-12T00:35:35.508Z,10.70
2023-03-12T00:39:43.455Z,10.80
2023-03-12T00:43:52.376Z,9.30
2023-03-12T00:48:00.270Z,11.90
2023-03-12T00:52:09.882Z,11.60
2023-03-12T00:56:17.729Z,14.00
2023-03-12T01:00:26.883Z,14.70
2023-03-12T01:04:35.068Z,12.50
2023-03-12T01:08:42.968Z,11.00
2023-03-12T01:12:50.953Z,10.20
2023-03-12T01:16:59.338Z,7.30
2023-03-12T01:21:07.698Z,9.10
2023-03-12T01:25:15.926Z,7.80
2023-03-12T01:29:23.904Z,7.90
2023-03-12T01:33:31.735Z,7.70
2023-03-12T01:37:41.046Z,5.90
2023-03-12T01:41:48.727Z,8.90
2023-03-12T01:46:26.369Z,9.80
2023-03-12T01:50:35.491Z,8.20
2023-03-12T01:54:45.573Z,8.60
2023-03-12T01:58:56.467Z,8.10
2023-03-12T02:03:08.902Z,6.40
2023-03-12T02:07:17.830Z,6.20
2023-03-12T02:11:25.096Z,7.80
2023-03-12T02:15:34.548Z,7.40
2023-03-12T02:19:46.170Z,6.00
2023-03-12T02:24:00.374Z,7.00
2023-03-12T02:28:11.420Z,7.70
2023-03-12T02:32:22.063Z,7.10
2023-03-12T02:36:29.765Z,6.40
2023-03-12T02:40:40.907Z,5.40
2023-03-12T02:44:48.666Z,6.50
2023-03-12T02:48:57.359Z,4.90
2023-03-12T02:53:06.244Z,6.60
2023-03-12T02:57:13.912Z,6.20
2023-03-12T03:01:22.798Z,5.90
2023-03-12T03:05:31.122Z,5.40
2023-03-12T03:09:39.030Z,7.10
2023-03-12T03:13:46.763Z,6.30
2023-03-12T03:17:54.964Z,9.60
2023-03-12T03:22:03.075Z,10.10
2023-03-12T03:26:10.913Z,7.60
2023-03-12T03:30:19.581Z,8.70
2023-03-12T03:34:28.611Z,6.50
2023-03-12T03:38:37.532Z,8.40
2023-03-12T03:42:45.169Z,7.20
2023-03-12T03:46:53.653Z,8.30
2023-03-12T03:51:05.585Z,6.80
2023-03-12T03:55:13.575Z,7.70
2023-03-12T03:59:21.380Z,5.50
2023-03-12T04:03:29.262Z,5.70
2023-03-12T04:07:37.232Z,6.70
2023-03-12T04:11:44.929Z,5.40
2023-03-12T04:15:54.078Z,7.80
2023-03-12T04:20:01.804Z,6.50
2023-03-12T04:24:13.669Z,7.50
2023-03-12T04:28:21.108Z,9.30
2023-03-12T04:32:29.021Z,14.30
2023-03-12T04:36:36.839Z,10.70
2023-03-12T04:40:44.811Z,9.40
2023-03-12T04:44:53.789Z,7.40
2023-03-12T04:49:05.123Z,8.40
2023-03-12T04:53:13.683Z,6.60
2023-03-12T04:57:22.552Z,9.80
2023-03-12T05:01:33.674Z,6.90
2023-03-12T05:05:41.703Z,6.80
2023-03-12T05:09:49.223Z,6.70
2023-03-12T05:13:56.999Z,6.20
2023-03-12T05:18:05.523Z,5.70
2023-03-12T05:22:14.488Z,16.50
2023-03-12T05:26:24.609Z,8.10
2023-03-12T05:30:33.338Z,7.10
2023-03-12T05:34:41.387Z,7.20
2023-03-12T05:38:49.183Z,6.60
2023-03-12T05:42:57.399Z,6.30
2023-03-12T05:47:08.208Z,6.50
2023-03-12T05:51:16.300Z,5.80
2023-03-12T05:55:24.192Z,6.10
2023-03-12T05:59:32.074Z,5.40
2023-03-12T06:03:40.004Z,7.30
2023-03-12T06:07:48.063Z,5.60
2023-03-12T06:11:56.460Z,4.60
2023-03-12T06:16:07.540Z,7.80
2023-03-12T06:20:15.846Z,6.70
2023-03-12T06:24:23.638Z,7.30
2023-03-12T06:28:32.321Z,5.10
2023-03-12T06:32:40.322Z,6.40
2023-03-12T06:36:48.225Z,5.40
2023-03-12T06:41:01.041Z,6.30
2023-03-12T06:45:10.996Z,7.30
2023-03-12T06:49:19.141Z,7.40
2023-03-12T06:53:27.577Z,5.90
2023-03-12T06:57:35.861Z,7.10
2023-03-12T07:01:44.410Z,5.70
2023-03-12T07:05:54.050Z,9.30
2023-03-12T07:10:03.064Z,7.50
2023-03-12T07:14:11.161Z,8.80
2023-03-12T07:18:18.951Z,6.30
2023-03-12T07:22:27.061Z,5.90
2023-03-12T07:26:35.713Z,6.70
2023-03-12T07:30:50.485Z,7.30
2023-03-12T07:34:59.113Z,7.00
2023-03-12T07:39:08.619Z,7.30
2023-03-12T07:43:17.736Z,6.50
2023-03-12T07:47:29.258Z,7.40
2023-03-12T07:51:39.302Z,6.80
2023-03-12T07:55:48.805Z,7.70
2023-03-12T07:59:56.836Z,7.60
2023-03-12T08:04:05.330Z,7.00
2023-03-12T08:08:13.606Z,8.40
2023-03-12T08:12:21.601Z,5.00
2023-03-12T08:16:29.474Z,6.40
2023-03-12T08:20:37.946Z,7.00
2023-03-12T08:24:46.801Z,7.40
2023-03-12T08:28:55.765Z,8.60
2023-03-12T08:33:04.675Z,6.00
2023-03-12T08:37:13.022Z,6.10
2023-03-12T08:41:20.752Z,7.40
2023-03-12T08:45:28.507Z,8.30
2023-03-12T08:49:36.583Z,8.40
2023-03-12T08:53:45.473Z,10.50
2023-03-12T08:57:53.603Z,14.20
2023-03-12T09:02:02.406Z,9.80
2023-03-12T09:06:13.645Z,7.10
2023-03-12T09:10:22.066Z,7.80
2023-03-12T09:18:57.465Z,9.80
2023-03-12T09:23:07.665Z,7.00
2023-03-12T09:27:15.812Z,8.90
2023-03-12T09:31:23.789Z,8.60
2023-03-12T09:35:33.091Z,8.50
2023-03-12T09:39:42.497Z,6.70
2023-03-12T09:43:53.431Z,8.10
2023-03-12T09:48:03.587Z,8.60
2023-03-12T09:52:22.636Z,8.70
2023-03-12T09:56:30.900Z,7.30
2023-03-12T10:00:38.497Z,9.60
2023-03-12T10:04:59.397Z,7.30
2023-03-12T10:09:18.638Z,6.70
2023-03-12T10:13:39.343Z,6.50
2023-03-12T10:17:56.607Z,8.50
2023-03-12T10:22:09.153Z,7.20
2023-03-12T10:26:21.214Z,7.50
2023-03-12T10:30:31.708Z,6.70
2023-03-12T10:34:42.143Z,7.90
2023-03-12T10:38:50.655Z,8.40
2023-03-12T10:42:58.677Z,9.00
2023-03-12T10:47:24.134Z,8.90
2023-03-12T10:51:32.466Z,8.30
2023-03-12T10:55:40.467Z,9.80
2023-03-12T10:59:50.351Z,7.50
2023-03-12T11:04:16.135Z,8.00
2023-03-12T11:08:27.492Z,7.40
2023-03-12T11:12:36.619Z,7.50
2023-03-12T11:16:44.733Z,8.80
2023-03-12T11:20:56.798Z,8.60
2023-03-12T11:25:06.216Z,8.20
2023-03-12T11:29:23.983Z,8.70
2023-03-12T11:33:32.045Z,7.70
2023-03-12T11:37:46.100Z,7.60
2023-03-12T11:42:04.953Z,7.30
2023-03-12T11:46:23.100Z,8.40
2023-03-12T11:50:42.314Z,8.20
2023-03-12T11:55:15.931Z,7.30
2023-03-12T11:59:40.959Z,10.20
2023-03-12T12:04:10.962Z,8.80
2023-03-12T12:08:30.728Z,9.00
2023-03-12T12:12:49.750Z,8.60
2023-03-12T12:17:09.023Z,9.80
2023-03-12T12:21:30.378Z,8.30
2023-03-12T12:25:53.362Z,9.50
2023-03-12T12:30:14.343Z,7.80
2023-03-12T12:34:42.488Z,7.10
2023-03-12T12:38:54.926Z,8.40
2023-03-12T12:43:13.361Z,10.20
2023-03-12T12:47:24.561Z,8.10
2023-03-12T12:51:34.753Z,9.40
2023-03-12T12:55:48.258Z,8.10
2023-03-12T13:00:13.937Z,6.90
2023-03-12T13:04:27.693Z,7.10
2023-03-12T13:08:56.846Z,6.70
2023-03-12T13:13:11.116Z,7.70
2023-03-12T13:17:33.901Z,7.40
2023-03-12T13:21:52.088Z,8.00
2023-03-12T13:26:06.061Z,7.70
2023-03-12T13:30:44.275Z,7.80
2023-03-12T13:34:52.290Z,7.70
2023-03-12T13:39:02.830Z,6.30
2023-03-12T13:43:17.305Z,6.60
2023-03-12T13:47:29.116Z,7.80
2023-03-12T13:51:50.172Z,6.90
2023-03-12T13:56:16.214Z,8.60
2023-03-12T14:00:29.077Z,8.30
2023-03-12T14:04:41.245Z,10.80
2023-03-12T14:09:11.084Z,15.40
2023-03-12T14:13:36.859Z,13.20
2023-03-12T14:17:46.855Z,11.10
2023-03-12T14:21:56.420Z,10.90
2023-03-12T14:26:06.664Z,12.00
2023-03-12T14:30:20.914Z,11.00
2023-03-12T14:34:30.500Z,13.10
2023-03-12T14:38:41.540Z,14.00
2023-03-12T14:42:49.711Z,13.50
2023-03-12T14:47:03.357Z,14.80
2023-03-12T14:51:18.690Z,12.60
2023-03-12T14:55:30.213Z,11.40
2023-03-12T14:59:40.538Z,10.00
2023-03-12T15:03:50.692Z,10.40
2023-03-12T15:08:02.634Z,9.70
2023-03-12T15:12:19.704Z,9.30
2023-03-12T15:16:28.772Z,9.50
2023-03-12T15:20:38.613Z,8.90
2023-03-12T15:24:46.783Z,8.40
2023-03-12T15:29:01.306Z,8.80
2023-03-12T15:33:14.781Z,8.00
2023-03-12T15:37:32.909Z,8.80
2023-03-12T15:41:45.630Z,9.70
2023-03-12T15:46:00.003Z,9.30
2023-03-12T15:50:13.841Z,9.30
2023-03-12T15:54:30.815Z,11.10
2023-03-12T15:58:40.634Z,14.40
2023-03-12T16:02:56.356Z,14.00
2023-03-12T16:07:09.055Z,13.20
2023-03-12T16:11:20.670Z,14.70
2023-03-12T16:15:35.316Z,16.00
2023-03-12T16:19:45.336Z,16.00
2023-03-12T16:23:54.452Z,18.90
2023-03-12T16:28:06.678Z,13.50
2023-03-12T16:32:17.610Z,14.00
2023-03-12T16:36:26.165Z,14.40
2023-03-12T16:40:35.601Z,17.30
2023-03-12T16:44:46.243Z,17.20
2023-03-12T16:48:56.367Z,18.70
2023-03-12T16:53:06.297Z,16.50
2023-03-12T16:57:24.735Z,15.10
2023-03-12T17:01:33.741Z,10.90
2023-03-12T17:05:43.189Z,12.80
2023-03-12T17:09:50.925Z,12.10
2023-03-12T17:14:02.520Z,13.70
2023-03-12T17:18:11.792Z,13.10
2023-03-12T17:22:20.061Z,11.80
2023-03-12T17:26:31.988Z,13.50
2023-03-12T17:30:43.187Z,16.30
2023-03-12T17:34:52.177Z,15.50
2023-03-12T17:39:03.426Z,15.30
2023-03-12T17:43:17.085Z,15.00
2023-03-12T17:47:25.102Z,18.50
2023-03-12T17:51:35.120Z,16.90
2023-03-12T17:55:44.087Z,13.40
2023-03-12T18:00:02.092Z,16.20
2023-03-12T18:04:12.481Z,27.40
2023-03-12T18:08:21.094Z,48.00
2023-03-12T18:12:34.234Z,32.50
2023-03-12T18:16:59.869Z,25.80
2023-03-12T18:21:12.435Z,26.80
2023-03-12T18:25:26.858Z,24.90
2023-03-12T18:29:43.709Z,23.70
2023-03-12T18:33:52.140Z,17.70
2023-03-12T18:38:06.098Z,13.40
2023-03-12T18:42:16.561Z,16.20
2023-03-12T18:46:25.238Z,14.60
2023-03-12T18:50:33.352Z,11.90
2023-03-12T18:54:43.762Z,13.20
2023-03-12T18:58:52.075Z,14.30
2023-03-12T19:03:00.980Z,12.80
2023-03-12T19:07:11.528Z,15.30
2023-03-12T19:11:23.497Z,18.60
2023-03-12T19:15:31.581Z,21.70
2023-03-12T19:19:42.171Z,19.40
2023-03-12T19:23:52.488Z,20.80
2023-03-12T19:28:04.869Z,22.20
2023-03-12T19:32:14.750Z,27.20
2023-03-12T19:36:23.369Z,22.80
2023-03-12T19:40:34.260Z,23.40
2023-03-12T19:44:43.120Z,21.40
2023-03-12T19:48:51.359Z,22.60
2023-03-12T19:52:59.351Z,18.80
2023-03-12T19:57:12.425Z,15.00
2023-03-12T20:01:22.629Z,17.20
2023-03-12T20:05:31.337Z,13.90
2023-03-12T20:09:40.163Z,16.00
2023-03-12T20:13:48.689Z,14.70
2023-03-12T20:17:58.891Z,15.90
2023-03-12T20:22:07.455Z,18.00
2023-03-12T20:26:17.078Z,15.70
2023-03-12T20:30:25.416Z,16.30
2023-03-12T20:34:33.209Z,13.70
2023-03-12T20:38:41.190Z,11.20
2023-03-12T20:42:48.928Z,13.90
2023-03-12T20:46:57.689Z,18.50
2023-03-12T20:51:05.693Z,26.30
2023-03-12T20:55:14.413Z,23.80
2023-03-12T20:59:22.641Z,33.30
2023-03-12T21:03:30.718Z,22.30
2023-03-12T21:07:38.686Z,31.70
2023-03-12T21:11:46.878Z,19.90
2023-03-12T21:15:56.030Z,18.50
2023-03-12T21:20:07.079Z,19.20
2023-03-12T21:24:16.127Z,17.00
2023-03-12T21:28:29.386Z,17.60
2023-03-12T21:32:38.867Z,14.30
2023-03-12T21:36:47.885Z,13.10
2023-03-12T21:40:59.368Z,10.90
2023-03-12T21:45:08.562Z,14.70
2023-03-12T21:49:18.128Z,17.20
2023-03-12T21:53:26.241Z,16.80
2023-03-12T21:57:33.487Z,12.50
2023-03-12T22:01:41.536Z,12.10
2023-03-12T22:05:54.477Z,13.10
2023-03-12T22:10:02.310Z,11.80
2023-03-12T22:14:10.522Z,10.60
2023-03-12T22:18:18.419Z,13.10
2023-03-12T22:22:26.815Z,11.10
2023-03-12T22:26:35.496Z,12.00
2023-03-12T22:30:43.984Z,11.10
2023-03-12T22:34:52.525Z,13.50
2023-03-12T22:39:00.551Z,10.00
2023-03-12T22:43:07.982Z,11.10
2023-03-12T22:47:16.168Z,12.10
2023-03-12T22:51:24.743Z,9.60
2023-03-12T22:55:31.968Z,10.10
2023-03-12T22:59:39.732Z,8.90
2023-03-12T23:03:48.489Z,8.90
2023-03-12T23:07:55.933Z,7.90
2023-03-12T23:12:05.507Z,9.80
2023-03-12T23:16:17.211Z,7.70
2023-03-12T23:20:26.350Z,7.70
2023-03-12T23:24:34.451Z,7.40
2023-03-12T23:28:42.172Z,9.90
2023-03-12T23:32:50.341Z,8.60
2023-03-12T23:36:58.382Z,7.60
2023-03-12T23:41:08.273Z,7.40
2023-03-12T23:45:16.115Z,8.00
2023-03-12T23:49:24.357Z,7.50
2023-03-12T23:53:32.387Z,7.00
2023-03-12T23:57:41.538Z,7.70
